sensor_id;sensor_type;location;lat;lon;timestamp;pressure;altitude;pressure_sealevel;temperature;humidity
8280;BME280;8335;42.646;23.380;2022-11-12T00:01:25;95711.00;;;9.85;99.74
8280;BME280;8335;42.646;23.380;2022-11-12T00:03:53;95713.47;;;9.88;99.73
8280;BME280;8335;42.646;23.380;2022-11-12T00:06:21;95707.63;;;9.84;99.83
8280;BME280;8335;42.646;23.380;2022-11-12T00:08:48;95700.88;;;9.83;100.00
8280;BME280;8335;42.646;23.380;2022-11-12T00:11:15;95695.75;;;9.85;99.94
8280;BME280;8335;42.646;23.380;2022-11-12T00:13:42;95698.22;;;9.88;99.89
8280;BME280;8335;42.646;23.380;2022-11-12T00:16:08;95693.06;;;9.89;99.78
8280;BME280;8335;42.646;23.380;2022-11-12T00:18:35;95695.63;;;9.89;100.00
8280;BME280;8335;42.646;23.380;2022-11-12T00:21:03;95696.50;;;9.88;100.00
8280;BME280;8335;42.646;23.380;2022-11-12T00:23:30;95699.97;;;9.86;99.89
8280;BME280;8335;42.646;23.380;2022-11-12T00:25:58;95705.78;;;9.89;100.00
8280;BME280;8335;42.646;23.380;2022-11-12T00:28:24;95710.78;;;9.92;99.98
8280;BME280;8335;42.646;23.380;2022-11-12T00:30:51;95709.03;;;9.95;100.00
8280;BME280;8335;42.646;23.380;2022-11-12T00:33:18;95707.28;;;9.97;99.94
8280;BME280;8335;42.646;23.380;2022-11-12T00:35:45;95704.78;;;9.95;100.00
8280;BME280;8335;42.646;23.380;2022-11-12T00:38:13;95700.53;;;9.96;99.87
8280;BME280;8335;42.646;23.380;2022-11-12T00:40:40;95702.09;;;10.00;99.50
8280;BME280;8335;42.646;23.380;2022-11-12T00:43:07;95701.31;;;9.98;99.78
8280;BME280;8335;42.646;23.380;2022-11-12T00:45:34;95702.13;;;9.98;99.67
8280;BME280;8335;42.646;23.380;2022-11-12T00:48:00;95703.06;;;9.96;99.66
8280;BME280;8335;42.646;23.380;2022-11-12T00:50:27;95703.16;;;9.92;99.69
8280;BME280;8335;42.646;23.380;2022-11-12T00:52:54;95708.28;;;9.91;99.76
8280;BME280;8335;42.646;23.380;2022-11-12T00:55:22;95704.91;;;9.90;99.95
8280;BME280;8335;42.646;23.380;2022-11-12T00:57:49;95701.53;;;9.90;100.00
8280;BME280;8335;42.646;23.380;2022-11-12T01:00:16;95699.97;;;9.86;100.00
8280;BME280;8335;42.646;23.380;2022-11-12T01:02:44;95687.09;;;9.90;100.00
8280;BME280;8335;42.646;23.380;2022-11-12T01:05:11;95677.03;;;9.87;100.00
8280;BME280;8335;42.646;23.380;2022-11-12T01:07:37;95669.44;;;9.86;100.00
8280;BME280;8335;42.646;23.380;2022-11-12T01:10:05;95671.13;;;9.85;100.00
8280;BME280;8335;42.646;23.380;2022-11-12T01:12:33;95671.13;;;9.85;100.00
8280;BME280;8335;42.646;23.380;2022-11-12T01:15:00;95662.03;;;9.78;100.00
8280;BME280;8335;42.646;23.380;2022-11-12T01:17:27;95675.59;;;9.79;100.00
8280;BME280;8335;42.646;23.380;2022-11-12T01:19:54;95687.44;;;9.80;100.00
8280;BME280;8335;42.646;23.380;2022-11-12T01:22:21;95682.38;;;9.78;100.00
8280;BME280;8335;42.646;23.380;2022-11-12T01:24:47;95688.41;;;9.76;100.00
8280;BME280;8335;42.646;23.380;2022-11-12T01:27:14;95690.88;;;9.77;100.00
8280;BME280;8335;42.646;23.380;2022-11-12T01:29:42;95683.31;;;9.76;100.00
8280;BME280;8335;42.646;23.380;2022-11-12T01:32:09;95681.66;;;9.75;100.00
8280;BME280;8335;42.646;23.380;2022-11-12T01:34:36;95678.41;;;9.70;100.00
8280;BME280;8335;42.646;23.380;2022-11-12T01:37:02;95678.31;;;9.73;100.00
8280;BME280;8335;42.646;23.380;2022-11-12T01:39:29;95662.47;;;9.64;100.00
8280;BME280;8335;42.646;23.380;2022-11-12T01:41:56;95667.44;;;9.68;100.00
8280;BME280;8335;42.646;23.380;2022-11-12T01:44:24;95667.50;;;9.66;100.00
8280;BME280;8335;42.646;23.380;2022-11-12T01:47:00;95653.19;;;9.62;100.00
8280;BME280;8335;42.646;23.380;2022-11-12T01:49:31;95657.56;;;9.57;100.00
8280;BME280;8335;42.646;23.380;2022-11-12T01:52:06;95660.22;;;9.54;100.00
8280;BME280;8335;42.646;23.380;2022-11-12T01:54:35;95658.66;;;9.48;100.00
8280;BME280;8335;42.646;23.380;2022-11-12T01:57:02;95663.72;;;9.50;100.00
8280;BME280;8335;42.646;23.380;2022-11-12T01:59:32;95661.16;;;9.50;100.00
8280;BME280;8335;42.646;23.380;2022-11-12T02:02:02;95658.72;;;9.47;100.00
8280;BME280;8335;42.646;23.380;2022-11-12T02:04:30;95652.03;;;9.44;100.00
8280;BME280;8335;42.646;23.380;2022-11-12T02:06:58;95655.44;;;9.43;100.00
8280;BME280;8335;42.646;23.380;2022-11-12T02:09:26;95660.56;;;9.42;100.00
8280;BME280;8335;42.646;23.380;2022-11-12T02:11:53;95655.63;;;9.37;100.00
8280;BME280;8335;42.646;23.380;2022-11-12T02:14:20;95648.94;;;9.33;100.00
8280;BME280;8335;42.646;23.380;2022-11-12T02:16:47;95591.81;;;8.86;100.00
8280;BME280;8335;42.646;23.380;2022-11-12T02:19:16;95656.00;;;9.23;100.00
8280;BME280;8335;42.646;23.380;2022-11-12T02:21:44;95667.91;;;9.21;100.00
8280;BME280;8335;42.646;23.380;2022-11-12T02:24:34;95675.66;;;9.17;100.00
8280;BME280;8335;42.646;23.380;2022-11-12T02:27:03;95672.38;;;9.13;100.00
8280;BME280;8335;42.646;23.380;2022-11-12T02:29:31;95663.13;;;9.10;100.00
8280;BME280;8335;42.646;23.380;2022-11-12T02:31:58;95658.97;;;9.08;100.00
8280;BME280;8335;42.646;23.380;2022-11-12T02:34:25;95664.06;;;9.06;100.00
8280;BME280;8335;42.646;23.380;2022-11-12T02:36:53;95669.16;;;9.06;100.00
8280;BME280;8335;42.646;23.380;2022-11-12T02:39:19;95662.34;;;9.08;100.00
8280;BME280;8335;42.646;23.380;2022-11-12T02:41:46;95661.41;;;9.11;100.00
8280;BME280;8335;42.646;23.380;2022-11-12T02:44:13;95667.44;;;9.07;100.00
8280;BME280;8335;42.646;23.380;2022-11-12T02:46:40;95667.63;;;9.01;100.00
8280;BME280;8335;42.646;23.380;2022-11-12T02:49:07;95672.63;;;9.04;100.00
8280;BME280;8335;42.646;23.380;2022-11-12T02:51:33;95664.13;;;9.05;100.00
8280;BME280;8335;42.646;23.380;2022-11-12T02:54:02;95660.63;;;9.09;100.00
8280;BME280;8335;42.646;23.380;2022-11-12T02:56:28;95672.41;;;9.12;100.00
8280;BME280;8335;42.646;23.380;2022-11-12T02:58:55;95655.50;;;9.10;100.00
8280;BME280;8335;42.646;23.380;2022-11-12T03:01:22;95653.69;;;9.14;100.00
8280;BME280;8335;42.646;23.380;2022-11-12T03:03:49;95647.78;;;9.14;100.00
8280;BME280;8335;42.646;23.380;2022-11-12T03:06:16;95652.13;;;9.10;100.00
8280;BME280;8335;42.646;23.380;2022-11-12T03:08:43;95653.91;;;9.06;100.00
8280;BME280;8335;42.646;23.380;2022-11-12T03:11:13;95658.25;;;9.03;100.00
8280;BME280;8335;42.646;23.380;2022-11-12T03:13:40;95608.66;;;8.59;100.00
8280;BME280;8335;42.646;23.380;2022-11-12T03:16:07;95662.16;;;8.83;100.00
8280;BME280;8335;42.646;23.380;2022-11-12T03:18:35;95653.75;;;8.81;100.00
8280;BME280;8335;42.646;23.380;2022-11-12T03:21:02;95664.94;;;8.74;100.00
8280;BME280;8335;42.646;23.380;2022-11-12T03:23:29;95646.63;;;8.62;100.00
8280;BME280;8335;42.646;23.380;2022-11-12T03:25:56;95659.34;;;8.62;100.00
8280;BME280;8335;42.646;23.380;2022-11-12T03:28:24;95662.03;;;8.55;100.00
8280;BME280;8335;42.646;23.380;2022-11-12T03:30:55;95642.19;;;8.37;100.00
8280;BME280;8335;42.646;23.380;2022-11-12T03:33:22;95649.75;;;8.39;100.00
8280;BME280;8335;42.646;23.380;2022-11-12T03:35:49;95658.28;;;8.35;100.00
8280;BME280;8335;42.646;23.380;2022-11-12T03:38:16;95658.47;;;8.27;100.00
8280;BME280;8335;42.646;23.380;2022-11-12T03:40:43;95663.69;;;8.21;100.00
8280;BME280;8335;42.646;23.380;2022-11-12T03:43:09;95661.31;;;8.13;100.00
8280;BME280;8335;42.646;23.380;2022-11-12T03:45:38;95665.66;;;8.10;100.00
8280;BME280;8335;42.646;23.380;2022-11-12T03:48:05;95661.59;;;8.03;100.00
8280;BME280;8335;42.646;23.380;2022-11-12T03:50:31;95657.44;;;7.98;100.00
8280;BME280;8335;42.646;23.380;2022-11-12T03:52:59;95661.69;;;7.98;100.00
8280;BME280;8335;42.646;23.380;2022-11-12T03:55:27;95659.28;;;7.93;100.00
8280;BME280;8335;42.646;23.380;2022-11-12T03:57:55;95671.25;;;7.85;100.00
8280;BME280;8335;42.646;23.380;2022-11-12T04:00:24;95665.34;;;7.85;100.00
8280;BME280;8335;42.646;23.380;2022-11-12T04:02:52;95665.34;;;7.85;100.00
8280;BME280;8335;42.646;23.380;2022-11-12T04:05:19;95663.75;;;7.82;100.00
8280;BME280;8335;42.646;23.380;2022-11-12T04:08:06;95665.41;;;7.83;100.00
8280;BME280;8335;42.646;23.380;2022-11-12T04:10:50;95664.59;;;7.81;100.00
8280;BME280;8335;42.646;23.380;2022-11-12T04:13:17;95654.50;;;7.80;100.00
8280;BME280;8335;42.646;23.380;2022-11-12T04:15:52;95659.72;;;7.73;100.00
8280;BME280;8335;42.646;23.380;2022-11-12T04:18:34;95653.84;;;7.70;100.00
8280;BME280;8335;42.646;23.380;2022-11-12T04:21:18;95651.22;;;7.75;100.00
8280;BME280;8335;42.646;23.380;2022-11-12T04:24:03;95646.25;;;7.70;100.00
8280;BME280;8335;42.646;23.380;2022-11-12T04:26:30;95642.94;;;7.68;100.00
8280;BME280;8335;42.646;23.380;2022-11-12T04:28:55;95624.66;;;7.54;100.00
8280;BME280;8335;42.646;23.380;2022-11-12T04:31:39;95630.34;;;7.65;100.00
8280;BME280;8335;42.646;23.380;2022-11-12T04:34:08;95642.97;;;7.66;100.00
8280;BME280;8335;42.646;23.380;2022-11-12T04:36:52;95642.31;;;7.58;100.00
8280;BME280;8335;42.646;23.380;2022-11-12T04:39:19;95638.03;;;7.60;100.00
8280;BME280;8335;42.646;23.380;2022-11-12T04:41:45;95638.91;;;7.59;100.00
8280;BME280;8335;42.646;23.380;2022-11-12T04:44:29;95646.53;;;7.58;100.00
8280;BME280;8335;42.646;23.380;2022-11-12T04:47:22;95645.00;;;7.51;100.00
8280;BME280;8335;42.646;23.380;2022-11-12T04:49:50;95645.88;;;7.48;100.00
8280;BME280;8335;42.646;23.380;2022-11-12T04:52:17;95647.66;;;7.44;100.00
8280;BME280;8335;42.646;23.380;2022-11-12T04:54:44;95649.38;;;7.44;100.00
8280;BME280;8335;42.646;23.380;2022-11-12T04:57:11;95645.97;;;7.45;100.00
8280;BME280;8335;42.646;23.380;2022-11-12T04:59:37;95652.59;;;7.51;100.00
8280;BME280;8335;42.646;23.380;2022-11-12T05:02:04;95656.75;;;7.53;100.00
8280;BME280;8335;42.646;23.380;2022-11-12T05:04:31;95664.16;;;7.62;100.00
8280;BME280;8335;42.646;23.380;2022-11-12T05:06:59;95660.72;;;7.66;100.00
8280;BME280;8335;42.646;23.380;2022-11-12T05:09:27;95620.63;;;7.45;100.00
8280;BME280;8335;42.646;23.380;2022-11-12T05:11:55;95666.34;;;7.79;100.00
8280;BME280;8335;42.646;23.380;2022-11-12T05:14:23;95664.78;;;7.73;100.00
8280;BME280;8335;42.646;23.380;2022-11-12T05:16:50;95676.34;;;7.85;100.00
8280;BME280;8335;42.646;23.380;2022-11-12T05:19:17;95656.22;;;7.78;100.00
8280;BME280;8335;42.646;23.380;2022-11-12T05:21:44;95679.59;;;7.90;100.00
8280;BME280;8335;42.646;23.380;2022-11-12T05:24:30;95679.56;;;7.93;100.00
8280;BME280;8335;42.646;23.380;2022-11-12T05:26:57;95684.53;;;7.96;100.00
8280;BME280;8335;42.646;23.380;2022-11-12T05:29:24;95679.31;;;8.04;100.00
8280;BME280;8335;42.646;23.380;2022-11-12T05:31:51;95680.91;;;8.08;99.77
8280;BME280;8335;42.646;23.380;2022-11-12T05:34:17;95674.13;;;8.09;100.00
8280;BME280;8335;42.646;23.380;2022-11-12T05:36:44;95673.25;;;8.10;99.93
8280;BME280;8335;42.646;23.380;2022-11-12T05:39:11;95692.59;;;8.15;100.00
8280;BME280;8335;42.646;23.380;2022-11-12T05:41:39;95690.75;;;8.20;100.00
8280;BME280;8335;42.646;23.380;2022-11-12T05:44:06;95693.16;;;8.26;100.00
8280;BME280;8335;42.646;23.380;2022-11-12T05:46:32;95694.47;;;8.43;100.00
8280;BME280;8335;42.646;23.380;2022-11-12T05:48:59;95698.34;;;8.59;99.20
8280;BME280;8335;42.646;23.380;2022-11-12T05:51:26;95693.50;;;8.82;98.26
8280;BME280;8335;42.646;23.380;2022-11-12T05:53:53;95689.41;;;9.09;96.36
8280;BME280;8335;42.646;23.380;2022-11-12T05:56:19;95683.88;;;9.26;93.33
8280;BME280;8335;42.646;23.380;2022-11-12T05:58:47;95693.44;;;9.48;92.79
8280;BME280;8335;42.646;23.380;2022-11-12T06:01:14;95699.50;;;9.73;91.88
8280;BME280;8335;42.646;23.380;2022-11-12T06:03:41;95705.78;;;9.89;89.88
8280;BME280;8335;42.646;23.380;2022-11-12T06:06:08;95690.75;;;10.10;89.23
8280;BME280;8335;42.646;23.380;2022-11-12T06:08:35;95710.59;;;10.55;86.83
8280;BME280;8335;42.646;23.380;2022-11-12T06:11:01;95710.91;;;10.97;81.07
8280;BME280;8335;42.646;23.380;2022-11-12T06:13:28;95719.19;;;11.52;81.70
8280;BME280;8335;42.646;23.380;2022-11-12T06:15:57;95711.81;;;11.91;79.97
8280;BME280;8335;42.646;23.380;2022-11-12T06:18:24;95721.06;;;12.39;77.96
8280;BME280;8335;42.646;23.380;2022-11-12T06:20:51;95722.56;;;12.87;76.05
8280;BME280;8335;42.646;23.380;2022-11-12T06:23:32;95726.25;;;13.41;73.21
8280;BME280;8335;42.646;23.380;2022-11-12T06:25:59;95691.38;;;13.77;71.30
8280;BME280;8335;42.646;23.380;2022-11-12T06:28:26;95730.75;;;14.50;68.57
8280;BME280;8335;42.646;23.380;2022-11-12T06:30:53;95724.00;;;15.01;66.28
8280;BME280;8335;42.646;23.380;2022-11-12T06:33:22;95710.66;;;15.45;63.74
8280;BME280;8335;42.646;23.380;2022-11-12T06:35:55;95724.81;;;15.69;62.45
8280;BME280;8335;42.646;23.380;2022-11-12T06:38:23;95727.78;;;15.62;61.87
8280;BME280;8335;42.646;23.380;2022-11-12T06:40:49;95732.25;;;15.41;61.45
8280;BME280;8335;42.646;23.380;2022-11-12T06:43:16;95736.97;;;15.16;61.71
8280;BME280;8335;42.646;23.380;2022-11-12T06:45:43;95740.09;;;14.69;60.23
8280;BME280;8335;42.646;23.380;2022-11-12T06:48:09;95738.94;;;14.02;61.73
8280;BME280;8335;42.646;23.380;2022-11-12T06:50:38;95739.66;;;13.66;62.84
8280;BME280;8335;42.646;23.380;2022-11-12T06:53:04;95744.56;;;13.32;63.97
8280;BME280;8335;42.646;23.380;2022-11-12T06:55:31;95735.72;;;12.98;63.85
8280;BME280;8335;42.646;23.380;2022-11-12T06:57:58;95739.09;;;12.12;66.85
8280;BME280;8335;42.646;23.380;2022-11-12T07:00:25;95733.91;;;11.92;68.02
8280;BME280;8335;42.646;23.380;2022-11-12T07:02:52;95737.22;;;11.71;68.78
8280;BME280;8335;42.646;23.380;2022-11-12T07:05:18;95723.41;;;11.29;71.30
8280;BME280;8335;42.646;23.380;2022-11-12T07:07:46;95728.75;;;11.22;72.28
8280;BME280;8335;42.646;23.380;2022-11-12T07:10:13;95735.31;;;11.29;72.51
8280;BME280;8335;42.646;23.380;2022-11-12T07:12:40;95727.53;;;11.32;72.88
8280;BME280;8335;42.646;23.380;2022-11-12T07:15:07;95727.88;;;11.23;72.41
8280;BME280;8335;42.646;23.380;2022-11-12T07:17:34;95729.31;;;11.30;72.31
8280;BME280;8335;42.646;23.380;2022-11-12T07:20:01;95723.91;;;11.63;71.82
8280;BME280;8335;42.646;23.380;2022-11-12T07:22:28;95726.69;;;11.80;69.82
8280;BME280;8335;42.646;23.380;2022-11-12T07:24:56;95720.53;;;12.09;69.65
8280;BME280;8335;42.646;23.380;2022-11-12T07:27:23;95724.22;;;12.24;68.22
8280;BME280;8335;42.646;23.380;2022-11-12T07:29:49;95727.16;;;12.35;67.79
8280;BME280;8335;42.646;23.380;2022-11-12T07:32:16;95730.28;;;12.43;66.65
8280;BME280;8335;42.646;23.380;2022-11-12T07:34:43;95725.88;;;12.25;67.61
8280;BME280;8335;42.646;23.380;2022-11-12T07:37:10;95728.25;;;12.29;66.65
8280;BME280;8335;42.646;23.380;2022-11-12T07:39:36;95735.91;;;12.29;67.81
8280;BME280;8335;42.646;23.380;2022-11-12T07:42:04;95731.75;;;12.27;67.07
8280;BME280;8335;42.646;23.380;2022-11-12T07:44:31;95728.81;;;12.14;67.82
8280;BME280;8335;42.646;23.380;2022-11-12T07:46:58;95735.84;;;12.09;67.95
8280;BME280;8335;42.646;23.380;2022-11-12T07:49:25;95728.00;;;12.13;68.63
8280;BME280;8335;42.646;23.380;2022-11-12T07:51:51;95736.91;;;12.25;67.54
8280;BME280;8335;42.646;23.380;2022-11-12T07:54:18;95725.25;;;11.96;67.44
8280;BME280;8335;42.646;23.380;2022-11-12T07:56:45;95730.97;;;12.03;68.06
8280;BME280;8335;42.646;23.380;2022-11-12T07:59:13;95734.72;;;11.93;67.98
8280;BME280;8335;42.646;23.380;2022-11-12T08:01:40;95737.19;;;11.72;68.52
8280;BME280;8335;42.646;23.380;2022-11-12T08:04:08;95710.72;;;11.26;69.61
8280;BME280;8335;42.646;23.380;2022-11-12T08:06:36;95737.63;;;11.35;70.29
8280;BME280;8335;42.646;23.380;2022-11-12T08:09:05;95743.16;;;11.23;71.38
8280;BME280;8335;42.646;23.380;2022-11-12T08:11:32;95739.88;;;11.19;71.62
8280;BME280;8335;42.646;23.380;2022-11-12T08:14:00;95739.25;;;11.13;72.06
8280;BME280;8335;42.646;23.380;2022-11-12T08:16:28;95746.78;;;10.91;73.02
8280;BME280;8335;42.646;23.380;2022-11-12T08:18:55;95750.72;;;10.74;73.77
8280;BME280;8335;42.646;23.380;2022-11-12T08:21:22;95754.78;;;10.80;73.88
8280;BME280;8335;42.646;23.380;2022-11-12T08:23:49;95752.38;;;10.75;74.17
8280;BME280;8335;42.646;23.380;2022-11-12T08:26:17;95752.88;;;10.87;73.84
8280;BME280;8335;42.646;23.380;2022-11-12T08:28:44;95749.84;;;10.75;73.29
8280;BME280;8335;42.646;23.380;2022-11-12T08:31:13;95748.09;;;10.50;74.75
8280;BME280;8335;42.646;23.380;2022-11-12T08:33:42;95754.06;;;10.48;75.43
8280;BME280;8335;42.646;23.380;2022-11-12T08:36:10;95737.78;;;10.54;74.33
8280;BME280;8335;42.646;23.380;2022-11-12T08:38:37;95750.59;;;10.78;73.29
8280;BME280;8335;42.646;23.380;2022-11-12T08:41:07;95755.28;;;10.65;74.06
8280;BME280;8335;42.646;23.380;2022-11-12T08:43:34;95751.66;;;10.72;73.74
8280;BME280;8335;42.646;23.380;2022-11-12T08:46:02;95751.16;;;10.61;73.86
8280;BME280;8335;42.646;23.380;2022-11-12T08:48:30;95756.94;;;10.66;74.20
8280;BME280;8335;42.646;23.380;2022-11-12T08:51:00;95757.16;;;10.86;73.25
8280;BME280;8335;42.646;23.380;2022-11-12T08:53:26;95754.03;;;11.03;73.11
8280;BME280;8335;42.646;23.380;2022-11-12T08:55:53;95758.09;;;11.09;72.68
8280;BME280;8335;42.646;23.380;2022-11-12T08:58:21;95734.63;;;10.99;72.81
8280;BME280;8335;42.646;23.380;2022-11-12T09:00:47;95745.75;;;11.21;72.04
8280;BME280;8335;42.646;23.380;2022-11-12T09:03:17;95751.38;;;11.31;71.48
8280;BME280;8335;42.646;23.380;2022-11-12T09:05:44;95756.78;;;11.47;71.50
8280;BME280;8335;42.646;23.380;2022-11-12T09:08:14;95754.63;;;11.60;70.84
8280;BME280;8335;42.646;23.380;2022-11-12T09:10:41;95755.34;;;11.63;70.92
8280;BME280;8335;42.646;23.380;2022-11-12T09:13:08;95748.16;;;11.74;70.17
8280;BME280;8335;42.646;23.380;2022-11-12T09:15:35;95738.72;;;11.76;69.11
8280;BME280;8335;42.646;23.380;2022-11-12T09:18:04;95748.91;;;12.01;69.39
8280;BME280;8335;42.646;23.380;2022-11-12T09:20:32;95744.72;;;11.99;69.39
8280;BME280;8335;42.646;23.380;2022-11-12T09:23:00;95745.97;;;11.89;69.32
8280;BME280;8335;42.646;23.380;2022-11-12T09:25:29;95748.56;;;11.87;69.91
8280;BME280;8335;42.646;23.380;2022-11-12T09:27:56;95752.41;;;11.74;69.98
8280;BME280;8335;42.646;23.380;2022-11-12T09:30:23;95752.19;;;11.56;70.67
8280;BME280;8335;42.646;23.380;2022-11-12T09:32:56;95752.91;;;11.37;71.15
8280;BME280;8335;42.646;23.380;2022-11-12T09:35:22;95750.19;;;11.16;72.50
8280;BME280;8335;42.646;23.380;2022-11-12T09:37:49;95730.97;;;11.06;72.65
8280;BME280;8335;42.646;23.380;2022-11-12T09:40:18;95734.94;;;11.15;73.33
8280;BME280;8335;42.646;23.380;2022-11-12T09:42:53;95746.75;;;11.17;73.05
8280;BME280;8335;42.646;23.380;2022-11-12T09:45:23;95752.81;;;10.88;73.24
8280;BME280;8335;42.646;23.380;2022-11-12T09:47:53;95743.16;;;10.45;72.23
8280;BME280;8335;42.646;23.380;2022-11-12T09:50:25;95744.69;;;10.21;73.05
8280;BME280;8335;42.646;23.380;2022-11-12T09:52:59;95745.22;;;10.04;73.69
8280;BME280;8335;42.646;23.380;2022-11-12T09:55:30;95749.03;;;9.89;74.78
8280;BME280;8335;42.646;23.380;2022-11-12T09:58:00;95737.66;;;9.73;75.34
8280;BME280;8335;42.646;23.380;2022-11-12T10:00:27;95739.19;;;9.79;76.21
8280;BME280;8335;42.646;23.380;2022-11-12T10:03:01;95741.75;;;9.77;75.58
8280;BME280;8335;42.646;23.380;2022-11-12T10:05:32;95747.72;;;9.76;76.29
8280;BME280;8335;42.646;23.380;2022-11-12T10:08:07;95744.19;;;9.82;76.53
8280;BME280;8335;42.646;23.380;2022-11-12T10:10:44;95727.97;;;9.84;76.11
8280;BME280;8335;42.646;23.380;2022-11-12T10:13:27;95749.66;;;10.27;73.88
8280;BME280;8335;42.646;23.380;2022-11-12T10:16:06;95748.16;;;10.48;72.97
8280;BME280;8335;42.646;23.380;2022-11-12T10:19:08;95742.56;;;10.63;72.30
8280;BME280;8335;42.646;23.380;2022-11-12T10:21:45;95733.44;;;10.58;71.66
8280;BME280;8335;42.646;23.380;2022-11-12T10:24:19;95743.22;;;10.43;72.57
8280;BME280;8335;42.646;23.380;2022-11-12T10:26:47;95747.66;;;10.65;71.41
8280;BME280;8335;42.646;23.380;2022-11-12T10:29:23;95743.13;;;10.46;73.00
8280;BME280;8335;42.646;23.380;2022-11-12T10:31:52;95748.56;;;10.34;73.78
8280;BME280;8335;42.646;23.380;2022-11-12T10:34:20;95735.31;;;10.25;74.20
8280;BME280;8335;42.646;23.380;2022-11-12T10:36:50;95743.03;;;10.20;75.59
8280;BME280;8335;42.646;23.380;2022-11-12T10:39:33;95703.78;;;10.01;76.32
8280;BME280;8335;42.646;23.380;2022-11-12T10:42:03;95740.44;;;10.23;76.78
8280;BME280;8335;42.646;23.380;2022-11-12T10:44:31;95748.56;;;10.36;76.75
8280;BME280;8335;42.646;23.380;2022-11-12T10:47:24;95740.81;;;10.39;75.98
8280;BME280;8335;42.646;23.380;2022-11-12T10:50:02;95740.81;;;10.39;75.93
8280;BME280;8335;42.646;23.380;2022-11-12T10:52:30;95742.16;;;10.23;77.18
8280;BME280;8335;42.646;23.380;2022-11-12T10:55:05;95715.91;;;9.91;77.78
8280;BME280;8335;42.646;23.380;2022-11-12T10:57:32;95739.34;;;10.02;79.77
8280;BME280;8335;42.646;23.380;2022-11-12T11:00:13;95744.81;;;10.18;79.60
8280;BME280;8335;42.646;23.380;2022-11-12T11:02:45;95726.28;;;10.14;79.62
8280;BME280;8335;42.646;23.380;2022-11-12T11:05:30;95739.84;;;10.13;80.34
8280;BME280;8335;42.646;23.380;2022-11-12T11:07:57;95734.53;;;10.21;79.10
8280;BME280;8335;42.646;23.380;2022-11-12T11:10:28;95688.88;;;9.88;79.24
8280;BME280;8335;42.646;23.380;2022-11-12T11:13:17;95738.94;;;10.16;79.56
8280;BME280;8335;42.646;23.380;2022-11-12T11:16:01;95737.06;;;10.21;79.62
8280;BME280;8335;42.646;23.380;2022-11-12T11:18:31;95733.84;;;10.16;79.92
8280;BME280;8335;42.646;23.380;2022-11-12T11:21:06;95736.66;;;10.07;80.45
8280;BME280;8335;42.646;23.380;2022-11-12T11:23:39;95728.06;;;10.11;80.00
8280;BME280;8335;42.646;23.380;2022-11-12T11:26:18;95734.38;;;10.27;79.79
8280;BME280;8335;42.646;23.380;2022-11-12T11:28:54;95736.50;;;10.41;78.81
8280;BME280;8335;42.646;23.380;2022-11-12T11:31:33;95722.38;;;10.57;78.01
8280;BME280;8335;42.646;23.380;2022-11-12T11:34:11;95726.75;;;10.80;77.06
8280;BME280;8335;42.646;23.380;2022-11-12T11:36:44;95732.75;;;11.04;76.18
8280;BME280;8335;42.646;23.380;2022-11-12T11:39:23;95736.38;;;10.97;75.85
8280;BME280;8335;42.646;23.380;2022-11-12T11:42:07;95732.06;;;10.99;76.08
8280;BME280;8335;42.646;23.380;2022-11-12T11:44:43;95733.72;;;11.00;75.57
8280;BME280;8335;42.646;23.380;2022-11-12T11:47:24;95733.63;;;11.03;75.80
8280;BME280;8335;42.646;23.380;2022-11-12T11:50:08;95701.09;;;10.86;75.65
8280;BME280;8335;42.646;23.380;2022-11-12T11:52:44;95729.50;;;11.00;75.79
8280;BME280;8335;42.646;23.380;2022-11-12T11:55:22;95732.91;;;10.99;75.99
8280;BME280;8335;42.646;23.380;2022-11-12T11:57:58;95730.31;;;11.01;75.91
8280;BME280;8335;42.646;23.380;2022-11-12T12:00:30;95721.28;;;10.91;76.07
8280;BME280;8335;42.646;23.380;2022-11-12T12:03:15;95736.53;;;10.92;76.48
8280;BME280;8335;42.646;23.380;2022-11-12T12:05:47;95726.44;;;10.89;75.90
8280;BME280;8335;42.646;23.380;2022-11-12T12:08:23;95729.84;;;10.90;75.87
8280;BME280;8335;42.646;23.380;2022-11-12T12:10:59;95722.06;;;10.93;75.83
8280;BME280;8335;42.646;23.380;2022-11-12T12:13:34;95719.13;;;11.05;75.38
8280;BME280;8335;42.646;23.380;2022-11-12T12:16:23;95713.56;;;11.19;74.41
8280;BME280;8335;42.646;23.380;2022-11-12T12:19:00;95712.31;;;11.30;73.63
8280;BME280;8335;42.646;23.380;2022-11-12T12:21:38;95715.94;;;11.23;73.25
8280;BME280;8335;42.646;23.380;2022-11-12T12:24:11;95717.66;;;11.23;73.56
8280;BME280;8335;42.646;23.380;2022-11-12T12:26:44;95716.88;;;11.21;74.09
8280;BME280;8335;42.646;23.380;2022-11-12T12:29:15;95712.66;;;11.20;73.97
8280;BME280;8335;42.646;23.380;2022-11-12T12:31:46;95715.94;;;11.23;74.32
8280;BME280;8335;42.646;23.380;2022-11-12T12:34:19;95709.69;;;11.07;74.41
8280;BME280;8335;42.646;23.380;2022-11-12T12:36:50;95717.53;;;11.02;74.74
8280;BME280;8335;42.646;23.380;2022-11-12T12:39:22;95718.56;;;10.97;75.16
8280;BME280;8335;42.646;23.380;2022-11-12T12:41:55;95713.50;;;10.95;75.75
8280;BME280;8335;42.646;23.380;2022-11-12T12:44:23;95720.53;;;10.89;76.20
8280;BME280;8335;42.646;23.380;2022-11-12T12:47:13;95725.81;;;10.56;78.87
8280;BME280;8335;42.646;23.380;2022-11-12T12:49:42;95721.84;;;10.47;80.30
8280;BME280;8335;42.646;23.380;2022-11-12T12:52:11;95715.06;;;10.48;80.52
8280;BME280;8335;42.646;23.380;2022-11-12T12:54:55;95725.19;;;10.23;83.93
8280;BME280;8335;42.646;23.380;2022-11-12T12:57:31;95716.66;;;10.24;82.68
8280;BME280;8335;42.646;23.380;2022-11-12T13:00:23;95728.09;;;10.09;82.74
8280;BME280;8335;42.646;23.380;2022-11-12T13:02:51;95711.53;;;9.96;84.68
8280;BME280;8335;42.646;23.380;2022-11-12T13:05:25;95722.50;;;9.98;85.06
8280;BME280;8335;42.646;23.380;2022-11-12T13:07:56;95719.69;;;9.78;86.83
8280;BME280;8335;42.646;23.380;2022-11-12T13:10:50;95716.66;;;9.67;88.08
8280;BME280;8335;42.646;23.380;2022-11-12T13:13:29;95720.94;;;9.64;88.75
8280;BME280;8335;42.646;23.380;2022-11-12T13:15:58;95724.50;;;9.59;90.04
8280;BME280;8335;42.646;23.380;2022-11-12T13:21:27;95726.19;;;9.27;94.14
8280;BME280;8335;42.646;23.380;2022-11-12T13:23:59;95725.28;;;9.30;93.46
8280;BME280;8335;42.646;23.380;2022-11-12T13:26:46;95716.94;;;9.25;93.16
8280;BME280;8335;42.646;23.380;2022-11-12T13:29:24;95728.63;;;9.32;92.69
8280;BME280;8335;42.646;23.380;2022-11-12T13:32:25;95737.75;;;9.39;93.53